Aredale, Iowa
Current Conditions -  °F | °C
As of 3:35 PM on Wednesday 26 Nov 2014 (Local Time) from KCCY Reporting Station
Light Snow Light Snow  
Wind Chill: -8°   Ceiling: 400
Heat Index: -3°   Visibility: 0.75mi
Dew Point: -4°   Wind: 9mph
Humidity: 93%   Direction: 20°NNE
Pressure: 30.16"   Gusts: 16mph
Location:  42.83°N, 93.01°W
Report Text: KCCY 262135Z AUTO 02008G14KT 3/4SM -SN BKN004 BKN009 OVC026 M03/M04 A3016 RMK AO2
Loading
Personal Weather Stations






























Interactive Weather Map New forecast layout! Learn more

10-Day Weather Forecast

Advertisements
Track Severe Weather on mobile